createdAt,value
2023-03-15T00:02:27.408Z,89.50
2023-03-15T00:04:55.363Z,89.50
2023-03-15T00:07:25.776Z,89.60
2023-03-15T00:09:54.323Z,89.50
2023-03-15T00:12:23.307Z,89.10
2023-03-15T00:14:52.931Z,88.90
2023-03-15T00:17:22.991Z,88.70
2023-03-15T00:19:50.934Z,88.70
2023-03-15T00:22:18.859Z,88.50
2023-03-15T00:24:46.981Z,88.50
2023-03-15T00:27:15.060Z,88.50
2023-03-15T00:29:42.922Z,88.50
2023-03-15T00:32:12.359Z,88.60
2023-03-15T00:34:40.364Z,88.70
2023-03-15T00:37:08.275Z,88.70
2023-03-15T00:39:38.050Z,88.70
2023-03-15T00:42:06.211Z,88.80
2023-03-15T00:44:34.379Z,88.70
2023-03-15T00:47:02.398Z,88.80
2023-03-15T00:49:31.703Z,88.80
2023-03-15T00:51:59.525Z,88.90
2023-03-15T00:54:27.506Z,88.90
2023-03-15T00:56:58.454Z,89.00
2023-03-15T00:59:26.413Z,89.20
2023-03-15T01:01:54.473Z,89.20
2023-03-15T01:04:22.313Z,89.30
2023-03-15T01:06:51.616Z,89.50
2023-03-15T01:09:19.490Z,89.50
2023-03-15T01:11:47.419Z,89.50
2023-03-15T01:14:15.328Z,89.40
2023-03-15T01:16:43.381Z,89.20
2023-03-15T01:19:11.217Z,89.20
2023-03-15T01:21:39.234Z,89.20
2023-03-15T01:24:12.486Z,89.20
2023-03-15T01:26:40.315Z,89.40
2023-03-15T01:29:08.332Z,89.40
2023-03-15T01:31:36.250Z,89.50
2023-03-15T01:34:04.163Z,89.40
2023-03-15T01:36:32.045Z,89.40
2023-03-15T01:39:00.139Z,89.40
2023-03-15T01:41:29.464Z,89.40
2023-03-15T01:43:57.241Z,89.30
2023-03-15T01:46:28.459Z,89.30
2023-03-15T01:49:04.754Z,89.30
2023-03-15T01:51:36.360Z,89.50
2023-03-15T01:54:08.102Z,89.30
2023-03-15T01:56:42.336Z,89.40
2023-03-15T01:59:16.699Z,89.40
2023-03-15T02:01:45.997Z,89.40
2023-03-15T02:04:18.277Z,89.40
2023-03-15T02:06:47.841Z,90.00
2023-03-15T02:09:19.315Z,89.50
2023-03-15T02:11:49.985Z,89.50
2023-03-15T02:14:18.095Z,89.50
2023-03-15T02:16:46.284Z,89.50
2023-03-15T02:19:31.404Z,89.50
2023-03-15T02:22:06.695Z,89.60
2023-03-15T02:24:46.535Z,89.60
2023-03-15T02:27:15.945Z,89.50
2023-03-15T02:29:45.142Z,89.60
2023-03-15T02:32:13.211Z,89.50
2023-03-15T02:34:41.320Z,89.60
2023-03-15T02:37:09.318Z,89.50
2023-03-15T02:39:37.098Z,89.50
2023-03-15T02:42:05.775Z,89.60
2023-03-15T02:44:35.044Z,89.50
2023-03-15T02:47:08.294Z,89.50
2023-03-15T02:49:41.817Z,89.50
2023-03-15T02:52:10.886Z,89.50
2023-03-15T02:54:39.343Z,89.50
2023-03-15T02:57:07.512Z,89.40
2023-03-15T02:59:35.520Z,89.50
2023-03-15T03:02:05.313Z,89.50
2023-03-15T03:04:33.382Z,89.50
2023-03-15T03:07:01.337Z,89.50
2023-03-15T03:09:29.521Z,89.50
2023-03-15T03:11:58.313Z,89.50
2023-03-15T03:14:28.520Z,89.50
2023-03-15T03:16:56.738Z,89.50
2023-03-15T03:19:26.154Z,89.50
2023-03-15T03:21:54.285Z,89.50
2023-03-15T03:24:25.767Z,89.50
2023-03-15T03:26:58.577Z,89.30
2023-03-15T03:29:26.545Z,89.30
2023-03-15T03:31:54.430Z,89.40
2023-03-15T03:34:22.420Z,89.40
2023-03-15T03:36:51.662Z,89.40
2023-03-15T03:39:19.617Z,89.40
2023-03-15T03:41:47.498Z,89.40
2023-03-15T03:44:15.419Z,90.00
2023-03-15T03:46:43.282Z,89.30
2023-03-15T03:49:11.103Z,89.30
2023-03-15T03:51:39.068Z,89.40
2023-03-15T03:54:08.952Z,89.60
2023-03-15T03:56:36.900Z,89.50
2023-03-15T03:59:04.803Z,89.50
2023-03-15T04:01:33.673Z,89.50
2023-03-15T04:04:01.525Z,89.60
2023-03-15T04:06:29.806Z,89.60
2023-03-15T04:08:57.712Z,89.70
2023-03-15T04:11:27.094Z,89.70
2023-03-15T04:13:55.135Z,89.60
2023-03-15T04:16:24.624Z,89.60
2023-03-15T04:18:56.273Z,89.60
2023-03-15T04:21:24.277Z,89.70
2023-03-15T04:23:52.291Z,89.70
2023-03-15T04:26:20.107Z,89.70
2023-03-15T04:28:49.365Z,89.60
2023-03-15T04:31:17.391Z,89.50
2023-03-15T04:33:45.349Z,89.50
2023-03-15T04:36:18.377Z,89.30
2023-03-15T04:38:47.511Z,89.30
2023-03-15T04:41:15.852Z,89.20
2023-03-15T04:43:44.526Z,89.00
2023-03-15T04:46:14.148Z,89.00
2023-03-15T04:48:42.241Z,88.80
2023-03-15T04:51:10.046Z,88.80
2023-03-15T04:53:39.072Z,88.70
2023-03-15T04:56:08.079Z,88.70
2023-03-15T04:58:35.945Z,88.60
2023-03-15T05:01:03.883Z,89.30
2023-03-15T05:03:33.089Z,88.60
2023-03-15T05:06:08.030Z,88.60
2023-03-15T05:08:36.752Z,88.60
2023-03-15T05:11:05.416Z,88.60
2023-03-15T05:13:33.486Z,88.40
2023-03-15T05:16:01.389Z,88.50
2023-03-15T05:18:29.406Z,88.40
2023-03-15T05:20:58.692Z,88.50
2023-03-15T05:23:27.232Z,88.50
2023-03-15T05:25:56.769Z,88.50
2023-03-15T05:28:26.833Z,88.50
2023-03-15T05:30:54.788Z,88.70
2023-03-15T05:33:22.715Z,88.90
2023-03-15T05:35:50.712Z,89.10
2023-03-15T05:38:20.009Z,89.20
2023-03-15T05:40:48.154Z,89.40
2023-03-15T05:43:16.046Z,89.30
2023-03-15T05:45:45.004Z,89.40
2023-03-15T05:48:13.140Z,89.30
2023-03-15T05:50:40.984Z,89.30
2023-03-15T05:53:08.980Z,89.30
2023-03-15T05:55:38.869Z,89.40
2023-03-15T05:58:07.522Z,89.40
2023-03-15T06:00:35.543Z,89.30
2023-03-15T06:03:03.614Z,89.20
2023-03-15T06:05:31.552Z,89.20
2023-03-15T06:07:59.413Z,89.30
2023-03-15T06:10:27.575Z,89.40
2023-03-15T06:12:56.788Z,89.40
2023-03-15T06:15:24.618Z,89.30
2023-03-15T06:17:52.574Z,89.20
2023-03-15T06:20:20.939Z,89.00
2023-03-15T06:22:49.062Z,89.00
2023-03-15T06:25:17.106Z,88.90
2023-03-15T06:27:44.933Z,88.80
2023-03-15T06:30:17.045Z,88.80
2023-03-15T06:32:45.062Z,88.80
2023-03-15T06:35:12.946Z,88.70
2023-03-15T06:37:41.968Z,88.80
2023-03-15T06:40:13.082Z,88.90
2023-03-15T06:42:42.180Z,88.90
2023-03-15T06:45:10.868Z,89.00
2023-03-15T06:47:40.494Z,89.10
2023-03-15T06:50:09.920Z,89.10
2023-03-15T06:52:38.894Z,89.20
2023-03-15T06:55:07.631Z,89.40
2023-03-15T06:57:35.408Z,89.50
2023-03-15T07:00:07.805Z,89.60
2023-03-15T07:02:37.589Z,90.10
2023-03-15T07:05:07.912Z,89.80
2023-03-15T07:07:35.752Z,90.00
2023-03-15T07:10:03.776Z,90.00
2023-03-15T07:12:31.663Z,90.00
2023-03-15T07:14:59.494Z,90.00
2023-03-15T07:17:27.337Z,89.80
2023-03-15T07:19:58.810Z,89.80
2023-03-15T07:22:28.438Z,89.60
2023-03-15T07:24:56.424Z,89.50
2023-03-15T07:27:24.252Z,89.40
2023-03-15T07:29:52.572Z,89.30
2023-03-15T07:32:20.814Z,89.20
2023-03-15T07:34:48.778Z,89.10
2023-03-15T07:37:17.405Z,89.10
2023-03-15T07:39:46.627Z,89.00
2023-03-15T07:42:14.653Z,89.30
2023-03-15T07:44:42.545Z,89.60
2023-03-15T07:47:10.870Z,89.90
2023-03-15T07:49:38.726Z,89.80
2023-03-15T07:52:06.969Z,89.90
2023-03-15T07:54:35.068Z,89.80
2023-03-15T07:57:04.842Z,89.60
2023-03-15T07:59:33.619Z,89.40
2023-03-15T08:02:02.920Z,89.40
2023-03-15T08:04:31.103Z,89.40
2023-03-15T08:06:58.984Z,89.40
2023-03-15T08:09:26.836Z,89.40
2023-03-15T08:11:54.963Z,89.50
2023-03-15T08:14:24.559Z,89.50
2023-03-15T08:16:52.726Z,89.60
2023-03-15T08:19:22.161Z,89.60
2023-03-15T08:21:53.988Z,89.60
2023-03-15T08:24:22.485Z,89.80
2023-03-15T08:26:51.198Z,89.80
2023-03-15T08:29:19.199Z,89.90
2023-03-15T08:31:48.644Z,89.70
2023-03-15T08:34:16.991Z,89.50
2023-03-15T08:36:44.976Z,89.30
2023-03-15T08:39:12.907Z,89.30
2023-03-15T08:41:41.284Z,89.50
2023-03-15T08:44:09.289Z,89.40
2023-03-15T08:46:37.301Z,89.50
2023-03-15T08:49:06.861Z,89.60
2023-03-15T08:51:35.004Z,89.70
2023-03-15T08:54:04.239Z,89.70
2023-03-15T08:56:33.656Z,89.90
2023-03-15T08:59:01.596Z,90.00
2023-03-15T09:01:30.763Z,90.20
2023-03-15T09:03:59.027Z,90.20
2023-03-15T09:06:28.894Z,90.30
2023-03-15T09:08:57.088Z,90.40
2023-03-15T09:11:25.401Z,90.60
2023-03-15T09:13:54.031Z,90.80
2023-03-15T09:16:22.240Z,90.90
2023-03-15T09:18:50.081Z,90.60
2023-03-15T09:21:17.939Z,90.40
2023-03-15T09:23:47.180Z,90.30
2023-03-15T09:26:15.132Z,90.10
2023-03-15T09:28:43.182Z,90.00
2023-03-15T09:31:11.642Z,90.00
2023-03-15T09:33:39.462Z,90.00
2023-03-15T09:36:07.739Z,89.90
2023-03-15T09:38:35.967Z,90.00
2023-03-15T09:41:05.532Z,90.00
2023-03-15T09:43:47.694Z,90.10
2023-03-15T09:46:28.729Z,90.10
2023-03-15T09:49:05.781Z,90.10
2023-03-15T09:51:39.962Z,90.10
2023-03-15T09:54:13.782Z,90.10
2023-03-15T09:56:47.072Z,90.20
2023-03-15T09:59:17.823Z,90.30
2023-03-15T10:01:46.613Z,90.50
2023-03-15T10:04:23.843Z,90.80
2023-03-15T10:06:56.365Z,91.00
2023-03-15T10:09:26.547Z,91.10
2023-03-15T10:12:04.189Z,90.90
2023-03-15T10:14:41.455Z,90.50
2023-03-15T10:17:15.782Z,90.10
2023-03-15T10:19:50.823Z,89.70
2023-03-15T10:22:26.742Z,89.90
2023-03-15T10:25:00.457Z,90.10
2023-03-15T10:27:37.742Z,90.10
2023-03-15T10:30:19.593Z,90.20
2023-03-15T10:32:53.074Z,90.30
2023-03-15T10:35:22.032Z,90.20
2023-03-15T10:37:50.068Z,90.30
2023-03-15T10:40:42.665Z,90.30
2023-03-15T10:43:19.701Z,90.30
2023-03-15T10:46:01.596Z,90.20
2023-03-15T10:48:31.236Z,90.30
2023-03-15T10:51:04.206Z,90.40
2023-03-15T10:53:32.730Z,90.50
2023-03-15T10:56:03.485Z,90.40
2023-03-15T10:58:42.270Z,90.30
2023-03-15T11:01:14.962Z,90.30
2023-03-15T11:03:45.400Z,90.20
2023-03-15T11:06:22.872Z,90.20
2023-03-15T11:08:50.884Z,90.20
2023-03-15T11:11:20.855Z,90.10
2023-03-15T11:14:01.768Z,90.20
2023-03-15T11:16:39.111Z,90.20
2023-03-15T11:19:16.195Z,90.20
2023-03-15T11:21:46.068Z,90.30
2023-03-15T11:24:23.535Z,90.30
2023-03-15T11:26:55.161Z,90.20
2023-03-15T11:29:27.860Z,90.20
2023-03-15T11:31:57.052Z,90.20
2023-03-15T11:34:40.146Z,90.40
2023-03-15T11:37:15.675Z,90.40
2023-03-15T11:39:50.305Z,90.40
2023-03-15T11:42:25.890Z,90.50
2023-03-15T11:44:59.738Z,90.50
2023-03-15T11:47:41.406Z,90.40
2023-03-15T11:50:14.298Z,90.50
2023-03-15T11:52:43.113Z,90.40
2023-03-15T11:55:19.409Z,90.40
2023-03-15T11:57:48.532Z,90.50
2023-03-15T12:00:49.174Z,90.50
2023-03-15T12:03:39.908Z,90.50
2023-03-15T12:06:13.675Z,90.50
2023-03-15T12:08:44.685Z,90.30
2023-03-15T12:11:13.145Z,90.30
2023-03-15T12:13:54.063Z,90.30
2023-03-15T12:16:23.492Z,90.40
2023-03-15T12:18:54.361Z,90.50
2023-03-15T12:21:24.417Z,90.40
2023-03-15T12:24:04.202Z,90.40
2023-03-15T12:26:47.672Z,90.40
2023-03-15T12:29:24.467Z,90.20
2023-03-15T12:31:57.163Z,89.80
2023-03-15T12:34:38.982Z,89.60
2023-03-15T12:37:09.851Z,89.80
2023-03-15T12:39:50.671Z,90.00
2023-03-15T12:43:07.714Z,90.00
2023-03-15T12:45:46.150Z,90.20
2023-03-15T12:48:25.673Z,90.30
2023-03-15T12:50:58.672Z,90.40
2023-03-15T12:53:38.791Z,90.60
2023-03-15T12:56:32.988Z,90.60
2023-03-15T12:59:06.844Z,90.60
2023-03-15T13:01:35.885Z,90.50
2023-03-15T13:04:04.897Z,90.40
2023-03-15T13:06:46.737Z,90.40
2023-03-15T13:09:27.346Z,90.30
2023-03-15T13:11:59.667Z,90.20
2023-03-15T13:14:39.088Z,90.00
2023-03-15T13:17:17.390Z,89.80
2023-03-15T13:19:47.736Z,89.90
2023-03-15T13:22:25.393Z,90.00
2023-03-15T13:25:00.942Z,90.00
2023-03-15T13:27:46.268Z,89.90
2023-03-15T13:30:32.901Z,89.60
2023-03-15T13:33:08.020Z,89.90
2023-03-15T13:35:43.738Z,90.00
2023-03-15T13:38:27.590Z,90.10
2023-03-15T13:40:57.039Z,90.10
2023-03-15T13:43:34.147Z,89.90
2023-03-15T13:46:02.868Z,90.00
2023-03-15T13:48:33.346Z,90.10
2023-03-15T13:51:08.057Z,90.10
2023-03-15T13:53:49.556Z,90.10
2023-03-15T13:56:19.836Z,90.10
2023-03-15T13:58:49.164Z,90.40
2023-03-15T14:01:18.413Z,90.00
2023-03-15T14:03:53.995Z,90.10
2023-03-15T14:06:25.542Z,90.10
2023-03-15T14:09:01.239Z,90.10
2023-03-15T14:11:38.576Z,90.00
2023-03-15T14:14:31.354Z,90.00
2023-03-15T14:17:05.750Z,90.00
2023-03-15T14:19:35.729Z,88.80
2023-03-15T14:22:05.539Z,88.70
2023-03-15T14:24:38.201Z,88.50
2023-03-15T14:27:08.927Z,88.70
2023-03-15T14:29:38.015Z,88.70
2023-03-15T14:32:08.191Z,89.20
2023-03-15T14:34:44.669Z,89.70
2023-03-15T14:37:31.394Z,89.80
2023-03-15T14:40:15.210Z,89.80
2023-03-15T14:42:44.732Z,89.70
2023-03-15T14:45:15.236Z,90.00
2023-03-15T14:47:56.861Z,90.00
2023-03-15T14:50:27.563Z,89.80
2023-03-15T14:52:57.208Z,89.70
2023-03-15T14:55:31.248Z,89.90
2023-03-15T14:57:59.602Z,89.70
2023-03-15T15:00:27.940Z,89.70
2023-03-15T15:02:57.586Z,89.80
2023-03-15T15:05:28.528Z,89.80
2023-03-15T15:08:03.268Z,89.90
2023-03-15T15:10:34.767Z,89.70
2023-03-15T15:13:06.778Z,89.50
2023-03-15T15:15:53.544Z,89.30
2023-03-15T15:18:23.145Z,89.30
2023-03-15T15:20:54.155Z,89.20
2023-03-15T15:23:25.424Z,89.10
2023-03-15T15:25:57.448Z,89.40
2023-03-15T15:28:34.533Z,88.80
2023-03-15T15:31:03.697Z,88.80
2023-03-15T15:33:31.716Z,88.80
2023-03-15T15:36:00.075Z,88.80
2023-03-15T15:38:34.883Z,89.10
2023-03-15T15:41:04.365Z,89.00
2023-03-15T15:43:33.651Z,88.90
2023-03-15T15:46:01.827Z,89.10
2023-03-15T15:48:29.791Z,89.00
2023-03-15T15:50:57.697Z,89.10
2023-03-15T15:53:26.322Z,89.10
2023-03-15T15:55:54.416Z,89.10
2023-03-15T15:58:23.804Z,89.20
2023-03-15T16:00:51.792Z,88.90
2023-03-15T16:03:20.066Z,88.70
2023-03-15T16:05:47.897Z,88.70
2023-03-15T16:08:23.351Z,88.70
2023-03-15T16:10:51.824Z,88.70
2023-03-15T16:13:20.029Z,88.70
2023-03-15T16:15:49.377Z,88.70
2023-03-15T16:18:17.299Z,88.70
2023-03-15T16:20:45.446Z,88.70
2023-03-15T16:23:18.919Z,89.40
2023-03-15T16:25:49.468Z,88.80
2023-03-15T16:28:17.677Z,88.80
2023-03-15T16:30:47.106Z,88.70
2023-03-15T16:33:17.974Z,88.60
2023-03-15T16:35:48.557Z,88.60
2023-03-15T16:38:24.118Z,88.50
2023-03-15T16:40:53.489Z,88.50
2023-03-15T16:43:21.798Z,88.40
2023-03-15T16:45:49.783Z,88.30
2023-03-15T16:48:21.045Z,88.20
2023-03-15T16:50:49.443Z,88.20
2023-03-15T16:53:17.647Z,88.10
2023-03-15T16:55:45.595Z,88.20
2023-03-15T16:58:18.475Z,88.20
2023-03-15T17:00:48.529Z,88.10
2023-03-15T17:03:18.224Z,88.10
2023-03-15T17:05:48.837Z,88.10
2023-03-15T17:08:20.239Z,88.00
2023-03-15T17:10:49.220Z,88.00
2023-03-15T17:13:21.827Z,87.90
2023-03-15T17:15:49.996Z,88.00
2023-03-15T17:18:19.436Z,87.40
2023-03-15T17:20:50.335Z,87.80
2023-03-15T17:23:21.565Z,87.80
2023-03-15T17:25:50.191Z,87.80
2023-03-15T17:28:18.565Z,87.90
2023-03-15T17:30:47.510Z,88.00
2023-03-15T17:33:15.534Z,88.00
2023-03-15T17:35:45.684Z,87.90
2023-03-15T17:38:19.965Z,87.90
2023-03-15T17:40:48.137Z,87.80
2023-03-15T17:43:17.514Z,87.80
2023-03-15T17:45:46.857Z,87.70
2023-03-15T17:48:15.499Z,87.70
2023-03-15T17:50:45.151Z,87.60
2023-03-15T17:53:18.672Z,87.50
2023-03-15T17:55:49.319Z,87.40
2023-03-15T17:58:20.416Z,87.30
2023-03-15T18:00:49.719Z,87.30
2023-03-15T18:03:19.001Z,87.20
2023-03-15T18:05:47.408Z,87.10
2023-03-15T18:08:21.477Z,87.00
2023-03-15T18:10:51.187Z,87.00
2023-03-15T18:13:22.281Z,87.00
2023-03-15T18:15:51.169Z,87.30
2023-03-15T18:18:19.283Z,87.40
2023-03-15T18:20:49.442Z,87.40
2023-03-15T18:23:19.122Z,87.40
2023-03-15T18:25:48.184Z,87.40
2023-03-15T18:28:16.577Z,87.40
2023-03-15T18:30:45.372Z,87.40
2023-03-15T18:33:15.538Z,87.50
2023-03-15T18:35:43.841Z,87.60
2023-03-15T18:38:12.271Z,87.50
2023-03-15T18:40:41.866Z,87.70
2023-03-15T18:43:13.668Z,87.70
2023-03-15T18:45:42.696Z,87.70
2023-03-15T18:48:11.009Z,87.70
2023-03-15T18:50:39.182Z,87.70
2023-03-15T18:53:07.267Z,87.70
2023-03-15T18:55:36.016Z,87.60
2023-03-15T18:58:09.169Z,87.70
2023-03-15T19:00:38.070Z,87.70
2023-03-15T19:03:06.873Z,87.60
2023-03-15T19:05:37.953Z,87.60
2023-03-15T19:08:06.848Z,87.60
2023-03-15T19:10:36.113Z,87.60
2023-03-15T19:13:06.742Z,87.70
2023-03-15T19:15:35.354Z,87.60
2023-03-15T19:18:05.058Z,87.70
2023-03-15T19:20:33.901Z,87.70
2023-03-15T19:23:02.315Z,87.70
2023-03-15T19:25:31.131Z,87.70
2023-03-15T19:28:00.408Z,87.70
2023-03-15T19:30:32.220Z,87.70
2023-03-15T19:33:00.884Z,87.70
2023-03-15T19:35:28.876Z,87.70
2023-03-15T19:37:57.205Z,87.60
2023-03-15T19:40:26.875Z,87.60
2023-03-15T19:42:58.126Z,87.60
2023-03-15T19:45:27.490Z,87.60
2023-03-15T19:47:57.004Z,87.60
2023-03-15T19:50:31.011Z,87.60
2023-03-15T19:52:59.266Z,87.60
2023-03-15T19:55:30.401Z,87.60
2023-03-15T19:58:00.430Z,87.60
2023-03-15T20:00:29.056Z,87.60
2023-03-15T20:02:58.731Z,87.60
2023-03-15T20:05:28.568Z,87.60
2023-03-15T20:07:58.231Z,87.40
2023-03-15T20:10:26.240Z,87.60
2023-03-15T20:12:59.004Z,87.60
2023-03-15T20:15:29.540Z,87.60
2023-03-15T20:17:59.479Z,87.70
2023-03-15T20:20:27.557Z,87.70
2023-03-15T20:22:55.606Z,87.60
2023-03-15T20:25:23.861Z,87.60
2023-03-15T20:27:52.296Z,87.50
2023-03-15T20:30:24.130Z,87.50
2023-03-15T20:32:52.594Z,87.50
2023-03-15T20:35:22.294Z,87.40
2023-03-15T20:37:53.142Z,87.40
2023-03-15T20:40:21.965Z,87.40
2023-03-15T20:42:49.944Z,87.30
2023-03-15T20:45:18.213Z,87.30
2023-03-15T20:47:46.033Z,87.30
2023-03-15T20:50:15.362Z,87.30
2023-03-15T20:52:45.176Z,87.40
2023-03-15T20:55:13.689Z,87.30
2023-03-15T20:57:43.036Z,87.30
2023-03-15T21:00:16.768Z,87.50
2023-03-15T21:02:45.272Z,87.40
2023-03-15T21:05:14.332Z,87.40
2023-03-15T21:07:43.924Z,87.40
2023-03-15T21:10:16.576Z,87.40
2023-03-15T21:12:45.078Z,87.40
2023-03-15T21:15:17.424Z,87.40
2023-03-15T21:17:45.463Z,87.50
2023-03-15T21:20:15.551Z,87.50
2023-03-15T21:22:45.183Z,87.30
2023-03-15T21:25:13.505Z,87.30
2023-03-15T21:27:41.579Z,87.30
2023-03-15T21:30:11.665Z,87.30
2023-03-15T21:32:39.527Z,87.40
2023-03-15T21:35:09.067Z,87.40
2023-03-15T21:37:37.003Z,87.30
2023-03-15T21:40:07.521Z,87.20
2023-03-15T21:42:35.453Z,87.20
2023-03-15T21:45:03.296Z,87.30
2023-03-15T21:47:31.404Z,87.20
2023-03-15T21:49:59.218Z,87.10
2023-03-15T21:52:27.319Z,87.10
2023-03-15T21:54:55.370Z,87.00
2023-03-15T21:57:24.560Z,87.10
2023-03-15T21:59:52.452Z,87.10
2023-03-15T22:02:20.423Z,87.20
2023-03-15T22:04:48.353Z,87.20
2023-03-15T22:07:16.397Z,87.20
2023-03-15T22:09:44.394Z,88.00
2023-03-15T22:12:14.847Z,87.20
2023-03-15T22:14:45.902Z,87.40
2023-03-15T22:17:15.046Z,87.40
2023-03-15T22:19:42.813Z,87.40
2023-03-15T22:22:11.063Z,87.50
2023-03-15T22:24:39.157Z,87.50
2023-03-15T22:27:07.122Z,87.40
2023-03-15T22:29:35.201Z,87.40
2023-03-15T22:32:04.914Z,87.40
2023-03-15T22:34:34.250Z,87.40
2023-03-15T22:37:02.482Z,87.50
2023-03-15T22:39:30.314Z,87.60
2023-03-15T22:41:58.219Z,87.50
2023-03-15T22:44:26.172Z,87.40
2023-03-15T22:46:54.077Z,87.50
2023-03-15T22:49:23.699Z,87.60
2023-03-15T22:51:51.723Z,87.70
2023-03-15T22:54:19.652Z,87.70
2023-03-15T22:56:47.537Z,87.70
2023-03-15T22:59:15.570Z,87.70
2023-03-15T23:01:43.708Z,87.60
2023-03-15T23:04:11.600Z,87.70
2023-03-15T23:06:40.994Z,87.70
2023-03-15T23:09:08.802Z,87.60
2023-03-15T23:11:37.018Z,87.60
2023-03-15T23:14:05.083Z,87.60
2023-03-15T23:16:32.896Z,87.40
2023-03-15T23:19:02.962Z,87.50
2023-03-15T23:21:31.066Z,87.50
2023-03-15T23:24:00.324Z,87.40
2023-03-15T23:26:28.433Z,87.30
2023-03-15T23:28:56.250Z,87.30
2023-03-15T23:31:24.203Z,87.30
2023-03-15T23:33:52.104Z,87.30
2023-03-15T23:36:20.301Z,87.20
2023-03-15T23:38:48.100Z,87.20
2023-03-15T23:41:17.554Z,87.30
2023-03-15T23:43:45.557Z,87.30
2023-03-15T23:46:14.504Z,87.40
2023-03-15T23:48:42.702Z,87.40
2023-03-15T23:51:12.676Z,87.50
2023-03-15T23:53:40.548Z,87.60
2023-03-15T23:56:08.805Z,87.60
2023-03-15T23:58:38.731Z,87.60
